createdAt,value
2023-01-20T00:01:43.351Z,17.20
2023-01-20T00:04:10.374Z,18.13
2023-01-20T00:06:37.200Z,19.95
2023-01-20T00:09:06.513Z,16.13
2023-01-20T00:11:33.683Z,17.90
2023-01-20T00:14:02.265Z,20.35
2023-01-20T00:16:31.731Z,20.23
2023-01-20T00:18:59.000Z,21.17
2023-01-20T00:21:26.101Z,18.73
2023-01-20T00:23:53.054Z,15.65
2023-01-20T00:26:23.212Z,16.83
2023-01-20T00:28:52.543Z,15.60
2023-01-20T00:31:23.090Z,17.13
2023-01-20T00:33:52.088Z,15.75
2023-01-20T00:36:21.322Z,17.45
2023-01-20T00:38:48.704Z,15.35
2023-01-20T00:41:16.150Z,16.55
2023-01-20T00:43:43.410Z,16.58
2023-01-20T00:46:10.947Z,21.13
2023-01-20T00:48:38.952Z,16.70
2023-01-20T00:51:07.520Z,20.40
2023-01-20T00:53:35.308Z,17.27
2023-01-20T00:56:02.308Z,20.25
2023-01-20T00:58:29.402Z,21.02
2023-01-20T01:00:57.706Z,19.88
2023-01-20T01:03:24.916Z,18.35
2023-01-20T01:05:51.736Z,18.27
2023-01-20T01:08:18.651Z,19.23
2023-01-20T01:10:45.649Z,16.70
2023-01-20T01:13:12.457Z,18.55
2023-01-20T01:15:39.551Z,18.00
2023-01-20T01:18:07.037Z,23.20
2023-01-20T01:20:33.927Z,22.08
2023-01-20T01:23:00.875Z,19.92
2023-01-20T01:25:27.784Z,21.02
2023-01-20T01:27:54.748Z,20.08
2023-01-20T01:30:21.911Z,15.80
2023-01-20T01:32:48.886Z,17.52
2023-01-20T01:35:16.379Z,24.75
2023-01-20T01:37:43.547Z,19.17
2023-01-20T01:40:11.658Z,17.45
2023-01-20T01:42:39.953Z,26.20
2023-01-20T01:45:12.017Z,21.25
2023-01-20T01:48:06.092Z,17.08
2023-01-20T01:50:41.212Z,20.55
2023-01-20T01:53:09.897Z,20.63
2023-01-20T01:55:43.276Z,19.67
2023-01-20T01:58:15.529Z,21.13
2023-01-20T02:00:43.933Z,21.48
2023-01-20T02:03:11.701Z,18.70
2023-01-20T02:05:41.290Z,20.67
2023-01-20T02:08:08.675Z,16.83
2023-01-20T02:10:35.806Z,22.15
2023-01-20T02:13:03.242Z,21.15
2023-01-20T02:16:04.417Z,19.60
2023-01-20T02:18:48.750Z,18.38
2023-01-20T02:22:01.134Z,14.20
2023-01-20T02:24:58.225Z,17.05
2023-01-20T02:27:59.896Z,14.57
2023-01-20T02:31:18.327Z,16.00
2023-01-20T02:34:04.658Z,17.70
2023-01-20T02:37:13.905Z,16.03
2023-01-20T02:39:55.657Z,18.23
2023-01-20T02:42:28.326Z,18.45
2023-01-20T02:45:17.079Z,17.23
2023-01-20T02:48:12.467Z,18.70
2023-01-20T02:51:15.177Z,14.10
2023-01-20T02:54:00.578Z,16.95
2023-01-20T02:56:29.782Z,17.92
2023-01-20T02:59:06.535Z,15.05
2023-01-20T03:01:50.980Z,20.35
2023-01-20T03:04:27.993Z,16.10
2023-01-20T03:06:57.337Z,17.20
2023-01-20T03:09:31.529Z,15.43
2023-01-20T03:12:07.756Z,17.10
2023-01-20T03:14:34.793Z,24.00
2023-01-20T03:17:02.735Z,22.52
2023-01-20T03:19:30.023Z,17.80
2023-01-20T03:21:57.601Z,22.27
2023-01-20T03:24:26.014Z,18.30
2023-01-20T03:26:52.816Z,17.67
2023-01-20T03:29:19.794Z,17.55
2023-01-20T03:31:51.808Z,23.10
2023-01-20T03:34:23.044Z,19.40
2023-01-20T03:36:52.288Z,15.60
2023-01-20T03:39:20.043Z,16.17
2023-01-20T03:42:07.336Z,19.20
2023-01-20T03:45:04.506Z,18.27
2023-01-20T03:47:57.624Z,18.45
2023-01-20T03:50:41.210Z,17.13
2023-01-20T03:53:34.672Z,20.00
2023-01-20T03:56:14.843Z,16.30
2023-01-20T03:58:46.958Z,22.10
2023-01-20T04:01:18.752Z,21.35
2023-01-20T04:03:49.897Z,17.50
2023-01-20T04:06:19.990Z,21.98
2023-01-20T04:08:59.964Z,19.10
2023-01-20T04:11:27.799Z,16.85
2023-01-20T04:13:55.549Z,20.05
2023-01-20T04:16:24.385Z,23.90
2023-01-20T04:18:53.158Z,20.38
2023-01-20T04:21:29.733Z,19.75
2023-01-20T04:24:05.847Z,22.13
2023-01-20T04:26:32.859Z,19.50
2023-01-20T04:28:59.752Z,20.33
2023-01-20T04:31:31.181Z,22.05
2023-01-20T04:33:58.416Z,21.30
2023-01-20T04:36:25.932Z,19.17
2023-01-20T04:38:52.992Z,26.45
2023-01-20T04:41:20.032Z,23.98
2023-01-20T04:43:47.216Z,22.08
2023-01-20T04:46:15.482Z,31.35
2023-01-20T04:48:44.869Z,20.95
2023-01-20T04:51:11.836Z,27.02
2023-01-20T04:53:39.383Z,17.52
2023-01-20T04:56:15.035Z,19.52
2023-01-20T04:58:42.879Z,23.92
2023-01-20T05:01:10.042Z,22.02
2023-01-20T05:03:37.375Z,20.75
2023-01-20T05:06:06.133Z,25.23
2023-01-20T05:08:33.540Z,23.73
2023-01-20T05:11:00.381Z,25.45
2023-01-20T05:13:27.436Z,20.92
2023-01-20T05:15:54.507Z,22.30
2023-01-20T05:18:21.406Z,27.10
2023-01-20T05:20:49.586Z,24.63
2023-01-20T05:23:17.538Z,28.10
2023-01-20T05:25:51.473Z,29.48
2023-01-20T05:28:18.934Z,23.67
2023-01-20T05:30:46.853Z,22.75
2023-01-20T05:33:14.076Z,27.50
2023-01-20T05:35:41.311Z,27.77
2023-01-20T05:38:08.210Z,24.05
2023-01-20T05:40:35.096Z,26.58
2023-01-20T05:43:02.649Z,21.50
2023-01-20T05:45:31.139Z,23.00
2023-01-20T05:48:01.451Z,30.33
2023-01-20T05:50:29.251Z,26.55
2023-01-20T05:52:56.567Z,30.70
2023-01-20T05:55:23.598Z,35.28
2023-01-20T05:57:50.520Z,29.60
2023-01-20T06:00:19.027Z,32.92
2023-01-20T06:02:46.042Z,25.90
2023-01-20T06:05:13.612Z,28.13
2023-01-20T06:07:40.710Z,30.63
2023-01-20T06:10:08.793Z,34.15
2023-01-20T06:12:35.755Z,27.60
2023-01-20T06:15:02.871Z,29.48
2023-01-20T06:17:29.699Z,28.60
2023-01-20T06:19:56.731Z,28.45
2023-01-20T06:22:23.570Z,26.90
2023-01-20T06:24:50.455Z,28.40
2023-01-20T06:27:17.263Z,33.47
2023-01-20T06:29:44.306Z,34.53
2023-01-20T06:32:11.478Z,34.60
2023-01-20T06:34:38.843Z,33.75
2023-01-20T06:37:05.699Z,29.83
2023-01-20T06:39:32.571Z,33.28
2023-01-20T06:42:00.410Z,32.58
2023-01-20T06:44:27.479Z,29.92
2023-01-20T06:46:54.545Z,34.38
2023-01-20T06:49:21.486Z,36.38
2023-01-20T06:51:49.379Z,37.35
2023-01-20T06:54:16.630Z,32.72
2023-01-20T06:56:44.056Z,35.03
2023-01-20T06:59:12.193Z,34.00
2023-01-20T07:01:40.030Z,31.58
2023-01-20T07:04:08.172Z,28.48
2023-01-20T07:06:40.140Z,31.98
2023-01-20T07:09:10.810Z,28.55
2023-01-20T07:11:37.821Z,29.90
2023-01-20T07:14:06.342Z,35.75
2023-01-20T07:16:34.214Z,29.02
2023-01-20T07:19:01.089Z,33.63
2023-01-20T07:21:28.489Z,30.85
2023-01-20T07:23:56.054Z,32.95
2023-01-20T07:26:26.903Z,32.53
2023-01-20T07:28:54.349Z,29.58
2023-01-20T07:31:24.964Z,33.33
2023-01-20T07:33:55.402Z,33.42
2023-01-20T07:36:24.199Z,29.38
2023-01-20T07:38:52.361Z,31.75
2023-01-20T07:41:22.356Z,32.05
2023-01-20T07:43:53.085Z,31.35
2023-01-20T07:46:21.215Z,30.60
2023-01-20T07:48:49.492Z,26.92
2023-01-20T07:51:18.176Z,39.97
2023-01-20T07:53:49.433Z,36.97
2023-01-20T07:56:27.171Z,39.75
2023-01-20T07:58:56.821Z,32.33
2023-01-20T08:01:28.224Z,36.83
2023-01-20T08:03:57.622Z,29.88
2023-01-20T08:06:26.726Z,32.85
2023-01-20T08:08:58.718Z,32.55
2023-01-20T08:11:26.990Z,35.30
2023-01-20T08:13:56.725Z,30.25
2023-01-20T08:16:25.068Z,36.03
2023-01-20T08:18:56.117Z,34.05
2023-01-20T08:21:32.717Z,32.33
2023-01-20T08:24:03.561Z,27.70
2023-01-20T08:26:33.434Z,29.50
2023-01-20T08:29:09.046Z,37.92
2023-01-20T08:31:38.489Z,28.30
2023-01-20T08:34:06.766Z,30.05
2023-01-20T08:36:37.848Z,31.42
2023-01-20T08:39:09.757Z,28.88
2023-01-20T08:41:41.000Z,31.88
2023-01-20T08:44:10.144Z,35.28
2023-01-20T08:46:41.641Z,26.85
2023-01-20T08:49:18.643Z,31.15
2023-01-20T08:51:46.520Z,28.92
2023-01-20T08:54:14.640Z,26.60
2023-01-20T08:56:41.872Z,28.10
2023-01-20T08:59:08.786Z,27.85
2023-01-20T09:01:37.973Z,28.95
2023-01-20T09:04:08.378Z,29.48
2023-01-20T09:06:49.286Z,30.70
2023-01-20T09:09:19.030Z,32.22
2023-01-20T09:11:50.819Z,34.95
2023-01-20T09:14:24.593Z,34.65
2023-01-20T09:16:52.340Z,33.20
2023-01-20T09:19:19.713Z,30.27
2023-01-20T09:21:46.722Z,33.38
2023-01-20T09:24:14.022Z,34.70
2023-01-20T09:26:41.030Z,36.03
2023-01-20T09:29:17.204Z,36.10
2023-01-20T09:31:59.002Z,32.28
2023-01-20T09:34:29.712Z,33.70
2023-01-20T09:37:20.237Z,29.75
2023-01-20T09:40:06.781Z,40.53
2023-01-20T09:43:14.123Z,36.40
2023-01-20T09:46:02.544Z,37.97
2023-01-20T09:49:01.700Z,38.70
2023-01-20T09:52:13.521Z,37.83
2023-01-20T09:55:03.776Z,40.58
2023-01-20T09:57:37.873Z,34.58
2023-01-20T10:00:18.090Z,33.65
2023-01-20T10:02:51.804Z,32.20
2023-01-20T10:05:33.466Z,32.88
2023-01-20T10:08:14.377Z,39.30
2023-01-20T10:11:05.835Z,34.85
2023-01-20T10:14:03.963Z,39.03
2023-01-20T10:17:07.445Z,34.30
2023-01-20T10:19:42.774Z,31.58
2023-01-20T10:22:51.243Z,37.35
2023-01-20T10:25:32.613Z,43.60
2023-01-20T10:28:15.257Z,36.30
2023-01-20T10:30:42.875Z,42.92
2023-01-20T10:33:12.918Z,41.95
2023-01-20T10:35:53.696Z,41.72
2023-01-20T10:38:31.195Z,37.78
2023-01-20T10:41:13.427Z,40.30
2023-01-20T10:43:42.506Z,40.05
2023-01-20T10:46:24.813Z,39.70
2023-01-20T10:49:45.594Z,40.55
2023-01-20T10:52:44.068Z,36.55
2023-01-20T10:55:42.231Z,36.17
2023-01-20T10:58:12.401Z,34.13
2023-01-20T11:00:41.283Z,29.88
2023-01-20T11:03:17.053Z,32.03
2023-01-20T11:05:45.823Z,31.35
2023-01-20T11:08:23.554Z,38.50
2023-01-20T11:10:57.220Z,37.95
2023-01-20T11:13:24.657Z,34.88
2023-01-20T11:15:57.550Z,35.70
2023-01-20T11:18:31.564Z,40.92
2023-01-20T11:21:04.825Z,33.38
2023-01-20T11:23:38.388Z,33.35
2023-01-20T11:26:30.707Z,34.95
2023-01-20T11:29:02.789Z,30.60
2023-01-20T11:31:40.982Z,36.20
2023-01-20T11:34:33.202Z,37.50
2023-01-20T11:37:06.289Z,32.00
2023-01-20T11:40:00.156Z,38.85
2023-01-20T11:42:31.121Z,36.83
2023-01-20T11:45:20.222Z,37.55
2023-01-20T11:48:05.993Z,38.70
2023-01-20T11:50:50.036Z,37.85
2023-01-20T11:53:26.805Z,37.72
2023-01-20T11:56:26.920Z,41.60
2023-01-20T11:59:01.974Z,37.35
2023-01-20T12:01:49.746Z,38.35
2023-01-20T12:04:50.700Z,38.83
2023-01-20T12:07:45.882Z,36.15
2023-01-20T12:10:35.820Z,29.23
2023-01-20T12:13:13.011Z,32.05
2023-01-20T12:15:44.649Z,30.45
2023-01-20T12:18:37.796Z,35.95
2023-01-20T12:21:18.308Z,39.30
2023-01-20T12:24:10.273Z,37.22
2023-01-20T12:26:37.569Z,39.95
2023-01-20T12:29:18.396Z,36.92
2023-01-20T12:31:49.231Z,33.55
2023-01-20T12:34:24.181Z,35.42
2023-01-20T12:37:17.189Z,41.50
2023-01-20T12:40:17.478Z,42.88
2023-01-20T12:43:27.473Z,37.35
2023-01-20T12:46:27.221Z,36.58
2023-01-20T12:49:40.373Z,35.60
2023-01-20T12:52:29.063Z,36.80
2023-01-20T12:55:23.417Z,38.38
2023-01-20T12:58:15.568Z,37.53
2023-01-20T13:01:21.462Z,35.80
2023-01-20T13:04:32.314Z,34.95
2023-01-20T13:07:36.511Z,39.78
2023-01-20T13:10:39.570Z,40.05
2023-01-20T13:13:56.025Z,33.53
2023-01-20T13:16:45.740Z,44.15
2023-01-20T13:19:19.945Z,36.40
2023-01-20T13:22:02.885Z,39.58
2023-01-20T13:24:35.084Z,40.15
2023-01-20T13:27:02.966Z,39.00
2023-01-20T13:29:35.812Z,38.67
2023-01-20T13:32:04.397Z,42.88
2023-01-20T13:34:33.745Z,40.70
2023-01-20T13:37:04.014Z,38.13
2023-01-20T13:39:46.771Z,36.38
2023-01-20T13:42:48.894Z,41.05
2023-01-20T13:45:22.510Z,44.95
2023-01-20T13:48:22.379Z,42.45
2023-01-20T13:50:50.290Z,37.17
2023-01-20T13:53:20.531Z,42.45
2023-01-20T13:55:48.090Z,41.28
2023-01-20T13:58:24.734Z,38.55
2023-01-20T14:00:59.458Z,38.70
2023-01-20T14:03:35.333Z,38.05
2023-01-20T14:06:06.793Z,38.03
2023-01-20T14:08:47.056Z,45.65
2023-01-20T14:11:20.546Z,40.60
2023-01-20T14:14:02.050Z,39.80
2023-01-20T14:16:36.112Z,39.40
2023-01-20T14:19:32.503Z,35.63
2023-01-20T14:22:20.708Z,42.30
2023-01-20T14:24:52.692Z,40.33
2023-01-20T14:27:23.898Z,40.50
2023-01-20T14:29:53.965Z,41.55
2023-01-20T14:32:27.917Z,35.55
2023-01-20T14:34:56.247Z,42.30
2023-01-20T14:37:36.828Z,39.22
2023-01-20T14:40:25.357Z,42.22
2023-01-20T14:43:19.904Z,41.30
2023-01-20T14:45:51.434Z,37.20
2023-01-20T14:48:33.424Z,38.65
2023-01-20T14:51:03.983Z,39.60
2023-01-20T14:53:30.987Z,40.30
2023-01-20T14:56:02.939Z,42.95
2023-01-20T14:58:31.048Z,47.40
2023-01-20T15:01:04.532Z,47.53
2023-01-20T15:03:32.753Z,48.35
2023-01-20T15:06:12.097Z,40.17
2023-01-20T15:08:39.154Z,41.13
2023-01-20T15:11:18.952Z,40.08
2023-01-20T15:13:57.186Z,37.25
2023-01-20T15:16:37.049Z,59.17
2023-01-20T15:19:16.444Z,37.88
2023-01-20T15:21:49.163Z,41.15
2023-01-20T15:24:37.365Z,38.30
2023-01-20T15:27:26.669Z,41.08
2023-01-20T15:30:15.254Z,45.22
2023-01-20T15:32:42.951Z,41.60
2023-01-20T15:35:15.956Z,49.97
2023-01-20T15:37:44.259Z,44.97
2023-01-20T15:40:21.467Z,42.10
2023-01-20T15:42:49.535Z,47.05
2023-01-20T15:45:17.844Z,52.17
2023-01-20T15:47:46.596Z,41.85
2023-01-20T15:50:22.616Z,45.22
2023-01-20T15:52:49.830Z,49.47
2023-01-20T15:55:19.494Z,41.60
2023-01-20T15:57:51.184Z,44.67
2023-01-20T16:00:22.807Z,45.22
2023-01-20T16:02:49.775Z,45.58
2023-01-20T16:05:17.812Z,39.97
2023-01-20T16:07:46.853Z,55.15
2023-01-20T16:10:16.878Z,61.47
2023-01-20T16:12:45.124Z,53.33
2023-01-20T16:15:18.043Z,41.55
2023-01-20T16:17:45.366Z,49.17
2023-01-20T16:20:23.600Z,40.13
2023-01-20T16:22:51.623Z,38.83
2023-01-20T16:25:20.013Z,46.33
2023-01-20T16:27:47.435Z,51.10
2023-01-20T16:30:23.448Z,40.78
2023-01-20T16:32:50.907Z,45.80
2023-01-20T16:35:19.782Z,46.45
2023-01-20T16:37:48.052Z,43.85
2023-01-20T16:40:20.822Z,46.72
2023-01-20T16:42:48.789Z,49.10
2023-01-20T16:45:34.725Z,47.78
2023-01-20T16:48:01.830Z,38.03
2023-01-20T16:50:28.880Z,42.85
2023-01-20T16:52:56.683Z,47.35
2023-01-20T16:55:24.441Z,38.92
2023-01-20T16:57:51.321Z,45.70
2023-01-20T17:00:19.676Z,51.60
2023-01-20T17:02:51.863Z,47.55
2023-01-20T17:05:25.791Z,44.58
2023-01-20T17:07:56.722Z,55.70
2023-01-20T17:10:30.077Z,43.75
2023-01-20T17:12:57.328Z,52.60
2023-01-20T17:15:25.436Z,42.55
2023-01-20T17:17:55.921Z,45.72
2023-01-20T17:20:23.423Z,42.22
2023-01-20T17:22:57.521Z,43.67
2023-01-20T17:25:24.853Z,74.13
2023-01-20T17:27:51.748Z,47.63
2023-01-20T17:30:19.218Z,42.65
2023-01-20T17:32:51.305Z,41.85
2023-01-20T17:35:18.845Z,41.45
2023-01-20T17:37:45.825Z,38.10
2023-01-20T17:40:13.691Z,37.60
2023-01-20T17:42:40.668Z,41.10
2023-01-20T17:45:08.169Z,43.58
2023-01-20T17:47:35.042Z,45.88
2023-01-20T17:50:02.087Z,44.25
2023-01-20T17:52:29.298Z,40.15
2023-01-20T17:54:56.378Z,42.45
2023-01-20T17:57:23.226Z,41.83
2023-01-20T17:59:50.266Z,44.30
2023-01-20T18:02:18.595Z,44.97
2023-01-20T18:04:46.024Z,40.63
2023-01-20T18:07:13.540Z,43.33
2023-01-20T18:09:42.865Z,38.15
2023-01-20T18:12:10.201Z,41.58
2023-01-20T18:14:37.074Z,39.13
2023-01-20T18:17:04.125Z,37.38
2023-01-20T18:19:31.009Z,45.15
2023-01-20T18:21:59.607Z,38.55
2023-01-20T18:24:26.413Z,41.92
2023-01-20T18:26:53.323Z,38.45
2023-01-20T18:29:20.151Z,41.92
2023-01-20T18:31:47.361Z,36.00
2023-01-20T18:34:15.684Z,36.97
2023-01-20T18:36:46.027Z,37.38
2023-01-20T18:39:38.846Z,35.72
2023-01-20T18:42:05.919Z,36.20
2023-01-20T18:44:32.798Z,40.30
2023-01-20T18:46:59.677Z,33.25
2023-01-20T18:49:26.526Z,32.20
2023-01-20T18:51:53.490Z,34.05
2023-01-20T18:54:24.850Z,30.95
2023-01-20T18:56:52.589Z,33.20
2023-01-20T18:59:19.686Z,30.83
2023-01-20T19:01:47.430Z,27.80
2023-01-20T19:04:14.515Z,32.38
2023-01-20T19:06:44.587Z,31.98
2023-01-20T19:09:12.773Z,35.55
2023-01-20T19:11:41.979Z,35.55
2023-01-20T19:14:13.518Z,42.65
2023-01-20T19:16:49.134Z,34.13
2023-01-20T19:19:20.082Z,32.88
2023-01-20T19:21:51.879Z,29.02
2023-01-20T19:24:20.947Z,33.92
2023-01-20T19:26:48.109Z,27.95
2023-01-20T19:29:17.171Z,31.45
2023-01-20T19:31:45.039Z,33.78
2023-01-20T19:34:12.842Z,29.45
2023-01-20T19:36:39.797Z,33.17
2023-01-20T19:39:06.849Z,36.50
2023-01-20T19:41:35.708Z,32.22
2023-01-20T19:44:04.420Z,33.38
2023-01-20T19:46:34.665Z,30.75
2023-01-20T19:49:02.248Z,28.25
2023-01-20T19:51:31.186Z,29.30
2023-01-20T19:54:00.374Z,34.25
2023-01-20T19:56:31.656Z,31.05
2023-01-20T19:59:02.325Z,29.60
2023-01-20T20:01:36.126Z,32.88
2023-01-20T20:04:10.053Z,31.27
2023-01-20T20:06:48.503Z,35.03
2023-01-20T20:09:21.248Z,32.72
2023-01-20T20:11:49.125Z,28.00
2023-01-20T20:14:19.288Z,29.77
2023-01-20T20:16:47.043Z,25.15
2023-01-20T20:19:17.877Z,31.00
2023-01-20T20:21:45.923Z,29.20
2023-01-20T20:24:14.542Z,26.73
2023-01-20T20:26:41.956Z,33.28
2023-01-20T20:29:10.058Z,24.90
2023-01-20T20:31:38.270Z,27.63
2023-01-20T20:34:08.514Z,24.30
2023-01-20T20:36:35.991Z,27.80
2023-01-20T20:39:05.071Z,27.80
2023-01-20T20:41:33.203Z,22.92
2023-01-20T20:44:01.599Z,20.45
2023-01-20T20:46:29.532Z,26.05
2023-01-20T20:49:02.076Z,22.63
2023-01-20T20:51:32.468Z,22.05
2023-01-20T20:54:01.867Z,23.08
2023-01-20T20:56:33.058Z,25.00
2023-01-20T20:59:03.083Z,24.27
2023-01-20T21:01:33.746Z,23.30
2023-01-20T21:04:04.223Z,22.05
2023-01-20T21:06:32.643Z,25.13
2023-01-20T21:09:00.202Z,21.95
2023-01-20T21:11:28.194Z,25.98
2023-01-20T21:13:55.731Z,21.52
2023-01-20T21:16:24.171Z,20.25
2023-01-20T21:18:56.752Z,23.38
2023-01-20T21:21:24.376Z,22.55
2023-01-20T21:23:53.861Z,28.25
2023-01-20T21:26:22.222Z,25.65
2023-01-20T21:28:49.185Z,21.67
2023-01-20T21:31:22.723Z,23.30
2023-01-20T21:33:58.215Z,19.88
2023-01-20T21:36:26.665Z,18.38
2023-01-20T21:38:53.632Z,19.70
2023-01-20T21:41:20.831Z,22.40
2023-01-20T21:44:08.079Z,20.83
2023-01-20T21:46:39.834Z,16.88
2023-01-20T21:49:26.995Z,20.85
2023-01-20T21:54:41.359Z,19.63
2023-01-20T21:57:09.148Z,18.60
2023-01-20T21:59:36.410Z,21.90
2023-01-20T22:02:03.579Z,20.98
2023-01-20T22:04:30.465Z,19.08
2023-01-20T22:06:57.943Z,21.83
2023-01-20T22:09:24.873Z,21.83
2023-01-20T22:11:51.988Z,21.50
2023-01-20T22:14:18.842Z,21.23
2023-01-20T22:16:45.979Z,23.25
2023-01-20T22:19:14.586Z,21.75
2023-01-20T22:21:42.298Z,22.55
2023-01-20T22:24:10.311Z,20.27
2023-01-20T22:26:37.304Z,21.25
2023-01-20T22:29:04.597Z,24.75
2023-01-20T22:31:33.946Z,22.98
2023-01-20T22:34:06.615Z,20.13
2023-01-20T22:36:34.346Z,20.13
2023-01-20T22:39:03.255Z,18.40
2023-01-20T22:41:31.110Z,18.10
2023-01-20T22:43:59.006Z,16.80
2023-01-20T22:46:29.086Z,19.00
2023-01-20T22:48:57.479Z,18.75
2023-01-20T22:51:27.691Z,20.73
2023-01-20T22:53:56.331Z,19.50
2023-01-20T22:56:29.943Z,42.90
2023-01-20T22:58:58.621Z,17.17
2023-01-20T23:01:33.061Z,14.52
2023-01-20T23:04:06.030Z,16.25
2023-01-20T23:06:35.621Z,17.20
2023-01-20T23:09:12.634Z,20.20
2023-01-20T23:11:39.947Z,20.15
2023-01-20T23:14:10.810Z,17.90
2023-01-20T23:16:37.830Z,17.50
2023-01-20T23:19:04.915Z,19.70
2023-01-20T23:21:32.359Z,22.48
2023-01-20T23:23:59.256Z,18.98
2023-01-20T23:26:29.974Z,21.35
2023-01-20T23:28:57.419Z,23.63
2023-01-20T23:31:25.949Z,21.75
2023-01-20T23:33:54.239Z,17.48
2023-01-20T23:36:25.667Z,22.98
2023-01-20T23:38:56.060Z,17.88
2023-01-20T23:41:24.054Z,17.80
2023-01-20T23:43:51.251Z,19.60
2023-01-20T23:46:18.424Z,19.08
2023-01-20T23:48:46.815Z,18.90
2023-01-20T23:51:14.143Z,21.85
2023-01-20T23:53:41.410Z,19.30
2023-01-20T23:56:14.710Z,15.68
2023-01-20T23:58:42.238Z,18.60
